Time,TemperatureF,DewpointF,PressureIn,WindDirection,WindDirectionDegrees,WindSpeedMPH,WindSpeedGustMPH,Humidity,HourlyPrecipIn,Conditions,Clouds,dailyrainin,SoftwareType,DateUTC
2013-05-19 00:01:00,79.8,67.4,29.68,SE,130,0.0,2.0,66,0.00,,---,0.00,VWS V14.01,2013-05-19 05:01:00,
2013-05-19 00:06:00,79.7,67.3,29.68,SW,221,4.0,4.0,66,0.00,,---,0.00,VWS V14.01,2013-05-19 05:06:00,
2013-05-19 00:11:00,79.6,67.2,29.68,SW,215,12.0,12.0,66,0.00,,---,0.00,VWS V14.01,2013-05-19 05:11:00,
2013-05-19 00:16:00,79.4,67.1,29.68,SW,223,0.0,0.0,66,0.00,,---,0.00,VWS V14.01,2013-05-19 05:16:00,
2013-05-19 00:21:00,79.2,67.3,29.68,SSE,166,1.0,13.0,67,0.00,,---,0.00,VWS V14.01,2013-05-19 05:21:00,
2013-05-19 00:26:00,79.1,67.2,29.68,South,188,5.0,6.0,67,0.00,,---,0.00,VWS V14.01,2013-05-19 05:26:00,
2013-05-19 00:31:00,78.9,67.0,29.68,South,174,0.0,4.0,67,0.00,,---,0.00,VWS V14.01,2013-05-19 05:31:00,
2013-05-19 00:36:00,78.7,66.8,29.68,South,171,2.0,5.0,67,0.00,,---,0.00,VWS V14.01,2013-05-19 05:36:00,
2013-05-19 00:41:00,78.6,66.7,29.68,South,186,0.0,0.0,67,0.00,,---,0.00,VWS V14.01,2013-05-19 05:41:00,
2013-05-19 00:46:00,78.5,66.6,29.68,South,177,6.0,6.0,67,0.00,,---,0.00,VWS V14.01,2013-05-19 05:46:00,
2013-05-19 00:51:00,78.3,66.9,29.68,South,180,0.0,1.0,68,0.00,,---,0.00,VWS V14.01,2013-05-19 05:51:00,
2013-05-19 00:56:00,78.1,66.7,29.68,South,185,0.0,0.0,68,0.00,,---,0.00,VWS V14.01,2013-05-19 05:56:00,
2013-05-19 01:01:00,77.9,66.5,29.68,SE,146,0.0,6.0,68,0.00,,---,0.00,VWS V14.01,2013-05-19 06:01:00,
2013-05-19 01:06:00,77.8,66.4,29.68,SSE,162,1.0,6.0,68,0.00,,---,0.00,VWS V14.01,2013-05-19 06:06:00,
2013-05-19 01:11:00,77.7,66.3,29.68,SW,234,14.0,14.0,68,0.00,,---,0.00,VWS V14.01,2013-05-19 06:11:00,
2013-05-19 01:16:00,77.7,66.3,29.68,SSE,167,0.0,0.0,68,0.00,,---,0.00,VWS V14.01,2013-05-19 06:16:00,
2013-05-19 01:21:00,77.6,66.2,29.68,SSE,163,2.0,5.0,68,0.00,,---,0.00,VWS V14.01,2013-05-19 06:21:00,
2013-05-19 01:26:00,77.4,66.0,29.68,SSE,165,10.0,10.0,68,0.00,,---,0.00,VWS V14.01,2013-05-19 06:26:00,
2013-05-19 01:31:00,77.3,66.3,29.68,South,173,0.0,0.0,69,0.00,,---,0.00,VWS V14.01,2013-05-19 06:31:00,
2013-05-19 01:36:00,77.0,66.1,29.69,SSW,196,0.0,5.0,69,0.00,,---,0.00,VWS V14.01,2013-05-19 06:36:00,
2013-05-19 01:41:00,76.9,66.0,29.69,SSW,210,0.0,0.0,69,0.00,,---,0.00,VWS V14.01,2013-05-19 06:41:00,
2013-05-19 01:46:00,76.8,65.9,29.69,SSE,153,1.0,1.0,69,0.00,,---,0.00,VWS V14.01,2013-05-19 06:46:00,
2013-05-19 01:51:00,76.7,66.2,29.68,SW,236,1.0,1.0,70,0.00,,---,0.00,VWS V14.01,2013-05-19 06:51:00,
2013-05-19 01:56:00,76.6,66.1,29.68,South,178,1.0,7.0,70,0.00,,---,0.00,VWS V14.01,2013-05-19 06:56:00,
2013-05-19 02:01:00,76.4,65.9,29.68,South,191,12.0,12.0,70,0.00,,---,0.00,VWS V14.01,2013-05-19 07:01:00,
2013-05-19 02:06:00,76.3,65.8,29.68,South,178,1.0,3.0,70,0.00,,---,0.00,VWS V14.01,2013-05-19 07:06:00,
2013-05-19 02:11:00,76.2,66.1,29.68,South,186,0.0,2.0,71,0.00,,---,0.00,VWS V14.01,2013-05-19 07:11:00,
2013-05-19 02:16:00,76.1,66.0,29.67,SE,140,6.0,6.0,71,0.00,,---,0.00,VWS V14.01,2013-05-19 07:16:00,
2013-05-19 02:21:00,76.0,65.9,29.67,SW,234,3.0,6.0,71,0.00,,---,0.00,VWS V14.01,2013-05-19 07:21:00,
2013-05-19 02:26:00,75.8,65.7,29.67,South,189,1.0,5.0,71,0.00,,---,0.00,VWS V14.01,2013-05-19 07:26:00,
2013-05-19 02:31:00,75.7,65.6,29.67,SSW,198,3.0,3.0,71,0.00,,---,0.00,VWS V14.01,2013-05-19 07:31:00,
2013-05-19 02:36:00,75.6,65.5,29.67,South,179,1.0,1.0,71,0.00,,---,0.00,VWS V14.01,2013-05-19 07:36:00,
2013-05-19 02:41:00,75.4,65.8,29.67,South,188,6.0,6.0,72,0.00,,---,0.00,VWS V14.01,2013-05-19 07:41:00,
2013-05-19 02:46:00,75.3,65.7,29.67,SSW,202,1.0,5.0,72,0.00,,---,0.00,VWS V14.01,2013-05-19 07:46:00,
2013-05-19 02:51:00,75.2,65.6,29.67,South,186,0.0,0.0,72,0.00,,---,0.00,VWS V14.01,2013-05-19 07:51:00,
2013-05-19 02:56:00,75.1,65.5,29.67,SE,140,11.0,11.0,72,0.00,,---,0.00,VWS V14.01,2013-05-19 07:56:00,
2013-05-19 03:01:00,74.9,65.3,29.67,South,182,4.0,7.0,72,0.00,,---,0.00,VWS V14.01,2013-05-19 08:01:00,
2013-05-19 03:06:00,74.8,65.2,29.67,SSW,211,0.0,10.0,72,0.00,,---,0.00,VWS V14.01,2013-05-19 08:06:00,
2013-05-19 03:11:00,74.7,65.1,29.67,South,187,1.0,1.0,72,0.00,,---,0.00,VWS V14.01,2013-05-19 08:11:00,
2013-05-19 03:15:00,74.5,65.3,29.67,WSW,238,5.0,6.0,73,0.00,,---,0.00,VWS V14.01,2013-05-19 08:15:00,
2013-05-19 03:20:00,74.4,65.2,29.66,SSE,163,10.0,10.0,73,0.00,,---,0.00,VWS V14.01,2013-05-19 08:20:00,
2013-05-19 03:25:00,74.3,65.1,29.66,SSE,167,2.0,2.0,73,0.00,,---,0.00,VWS V14.01,2013-05-19 08:25:00,
2013-05-19 03:30:00,74.2,65.0,29.66,South,188,0.0,11.0,73,0.00,,---,0.00,VWS V14.01,2013-05-19 08:30:00,
2013-05-19 03:35:00,74.1,64.9,29.66,SSW,207,10.0,10.0,73,0.00,,---,0.00,VWS V14.01,2013-05-19 08:35:00,
2013-05-19 03:40:00,73.9,64.7,29.66,SSW,200,1.0,12.0,73,0.00,,---,0.00,VWS V14.01,2013-05-19 08:40:00,
2013-05-19 03:45:00,73.9,64.7,29.66,SSW,200,0.0,4.0,73,0.00,,---,0.00,VWS V14.01,2013-05-19 08:45:00,
2013-05-19 03:50:00,73.8,64.6,29.66,South,191,0.0,2.0,73,0.00,,---,0.00,VWS V14.01,2013-05-19 08:50:00,
2013-05-19 03:55:00,73.7,64.5,29.66,South,189,0.0,2.0,73,0.00,,---,0.00,VWS V14.01,2013-05-19 08:55:00,
2013-05-19 04:00:00,73.5,64.3,29.65,South,179,1.0,1.0,73,0.00,,---,0.00,VWS V14.01,2013-05-19 09:00:00,
2013-05-19 04:05:00,73.4,64.6,29.65,SE,143,5.0,9.0,74,0.00,,---,0.00,VWS V14.01,2013-05-19 09:05:00,
2013-05-19 04:10:00,73.3,64.5,29.65,SSW,202,0.0,14.0,74,0.00,,---,0.00,VWS V14.01,2013-05-19 09:10:00,
2013-05-19 04:15:00,73.2,64.4,29.65,SSE,164,4.0,4.0,74,0.00,,---,0.00,VWS V14.01,2013-05-19 09:15:00,
2013-05-19 04:20:00,73.1,64.3,29.65,South,175,1.0,10.0,74,0.00,,---,0.00,VWS V14.01,2013-05-19 09:20:00,
2013-05-19 04:25:00,73.0,64.2,29.65,South,184,3.0,5.0,74,0.00,,---,0.00,VWS V14.01,2013-05-19 09:25:00,
2013-05-19 04:30:00,72.9,64.5,29.65,SSW,196,4.0,10.0,75,0.00,,---,0.00,VWS V14.01,2013-05-19 09:30:00,
2013-05-19 04:35:00,72.8,64.4,29.65,South,188,0.0,5.0,75,0.00,,---,0.00,VWS V14.01,2013-05-19 09:35:00,
2013-05-19 04:40:00,72.6,64.2,29.65,SSE,155,1.0,10.0,75,0.00,,---,0.00,VWS V14.01,2013-05-19 09:40:00,
2013-05-19 04:45:00,72.5,64.5,29.65,SSE,154,1.0,3.0,76,0.00,,---,0.00,VWS V14.01,2013-05-19 09:45:00,
2013-05-19 04:50:00,72.3,64.3,29.65,South,174,0.0,10.0,76,0.00,,---,0.00,VWS V14.01,2013-05-19 09:50:00,
2013-05-19 04:55:00,72.2,64.6,29.65,SSE,160,9.0,9.0,77,0.00,,---,0.00,VWS V14.01,2013-05-19 09:55:00,
2013-05-19 05:00:00,72.1,64.5,29.65,SSE,161,7.0,7.0,77,0.00,,---,0.00,VWS V14.01,2013-05-19 10:00:00,
2013-05-19 05:05:00,71.9,64.7,29.65,WSW,238,5.0,5.0,78,0.00,,---,0.00,VWS V14.01,2013-05-19 10:05:00,
2013-05-19 05:10:00,71.8,64.6,29.65,South,176,0.0,9.0,78,0.00,,---,0.00,VWS V14.01,2013-05-19 10:10:00,
2013-05-19 05:15:00,71.6,64.4,29.65,SSW,201,6.0,6.0,78,0.00,,---,0.00,VWS V14.01,2013-05-19 10:15:00,
2013-05-19 05:20:00,71.5,64.7,29.65,SE,140,1.0,5.0,79,0.00,,---,0.00,VWS V14.01,2013-05-19 10:20:00,
2013-05-19 05:25:00,71.4,64.6,29.66,South,181,0.0,5.0,79,0.00,,---,0.00,VWS V14.01,2013-05-19 10:25:00,
2013-05-19 05:30:00,71.3,64.5,29.66,South,177,6.0,6.0,79,0.00,,---,0.00,VWS V14.01,2013-05-19 10:30:00,
2013-05-19 05:35:00,71.2,64.7,29.66,South,187,0.0,0.0,80,0.00,,---,0.00,VWS V14.01,2013-05-19 10:35:00,
2013-05-19 05:40:00,71.1,65.0,29.66,South,188,16.0,16.0,81,0.00,,---,0.00,VWS V14.01,2013-05-19 10:40:00,
2013-05-19 05:45:00,70.9,64.8,29.66,SW,234,0.0,5.0,81,0.00,,---,0.00,VWS V14.01,2013-05-19 10:45:00,
2013-05-19 05:50:00,70.8,64.7,29.66,SSE,159,2.0,5.0,81,0.00,,---,0.00,VWS V14.01,2013-05-19 10:50:00,
2013-05-19 05:55:00,70.6,64.8,29.66,SSE,158,3.0,5.0,82,0.00,,---,0.00,VWS V14.01,2013-05-19 10:55:00,
2013-05-19 06:00:00,70.4,64.7,29.67,SSE,157,0.0,1.0,82,0.00,,---,0.00,VWS V14.01,2013-05-19 11:00:00,
2013-05-19 06:05:00,70.3,64.6,29.67,SSE,151,0.0,4.0,82,0.00,,---,0.00,VWS V14.01,2013-05-19 11:05:00,
2013-05-19 06:10:00,70.2,64.8,29.67,SSE,163,0.0,4.0,83,0.00,,---,0.00,VWS V14.01,2013-05-19 11:10:00,
2013-05-19 06:15:00,70.1,64.7,29.67,SSW,205,0.0,6.0,83,0.00,,---,0.00,VWS V14.01,2013-05-19 11:15:00,
2013-05-19 06:20:00,70.0,64.6,29.67,South,188,0.0,1.0,83,0.00,,---,0.00,VWS V14.01,2013-05-19 11:20:00,
2013-05-19 06:25:00,69.9,64.5,29.67,SW,223,6.0,6.0,83,0.00,,---,0.00,VWS V14.01,2013-05-19 11:25:00,
2013-05-19 06:30:00,69.8,64.8,29.67,South,184,0.0,6.0,84,0.00,,---,0.00,VWS V14.01,2013-05-19 11:30:00,
2013-05-19 06:35:00,69.8,64.8,29.67,South,185,0.0,4.0,84,0.00,,---,0.00,VWS V14.01,2013-05-19 11:35:00,
2013-05-19 06:40:00,69.7,64.7,29.68,South,181,0.0,0.0,84,0.00,,---,0.00,VWS V14.01,2013-05-19 11:40:00,
2013-05-19 06:45:00,69.7,64.7,29.68,South,173,0.0,3.0,84,0.00,,---,0.00,VWS V14.01,2013-05-19 11:45:00,
2013-05-19 06:50:00,69.7,64.7,29.68,SSW,205,2.0,9.0,84,0.00,,---,0.00,VWS V14.01,2013-05-19 11:50:00,
2013-05-19 06:55:00,69.8,64.8,29.68,SSW,199,0.0,2.0,84,0.00,,---,0.00,VWS V14.01,2013-05-19 11:55:00,
2013-05-19 07:00:00,69.8,64.8,29.68,South,179,0.0,1.0,84,0.00,,---,0.00,VWS V14.01,2013-05-19 12:00:00,
2013-05-19 07:05:00,69.8,64.8,29.69,SW,234,0.0,2.0,84,0.00,,---,0.00,VWS V14.01,2013-05-19 12:05:00,
2013-05-19 07:10:00,69.9,64.8,29.69,SSW,209,0.0,0.0,84,0.00,,---,0.00,VWS V14.01,2013-05-19 12:10:00,
2013-05-19 07:15:00,70.0,64.9,29.69,SE,141,0.0,0.0,84,0.00,,---,0.00,VWS V14.01,2013-05-19 12:15:00,
2013-05-19 07:20:00,70.2,65.1,29.69,South,171,0.0,5.0,84,0.00,,---,0.00,VWS V14.01,2013-05-19 12:20:00,
2013-05-19 07:25:00,70.3,65.2,29.69,South,169,5.0,5.0,84,0.00,,---,0.00,VWS V14.01,2013-05-19 12:25:00,
2013-05-19 07:30:00,70.4,65.3,29.69,South,187,1.0,7.0,84,0.00,,---,0.00,VWS V14.01,2013-05-19 12:30:00,
2013-05-19 07:35:00,70.6,65.2,29.69,SSW,196,1.0,4.0,83,0.00,,---,0.00,VWS V14.01,2013-05-19 12:35:00,
2013-05-19 07:40:00,70.9,65.5,29.69,SE,140,6.0,6.0,83,0.00,,---,0.00,VWS V14.01,2013-05-19 12:40:00,
2013-05-19 07:45:00,71.1,65.7,29.69,SSW,196,0.0,9.0,83,0.00,,---,0.00,VWS V14.01,2013-05-19 12:45:00,
2013-05-19 07:50:00,71.2,65.4,29.69,SSE,154,0.0,0.0,82,0.00,,---,0.00,VWS V14.01,2013-05-19 12:50:00,
2013-05-19 07:55:00,71.4,65.6,29.69,SSW,205,0.0,7.0,82,0.00,,---,0.00,VWS V14.01,2013-05-19 12:55:00,
2013-05-19 08:00:00,71.6,65.8,29.70,South,190,0.0,3.0,82,0.00,,---,0.00,VWS V14.01,2013-05-19 13:00:00,
2013-05-19 08:05:00,71.8,66.0,29.70,South,171,5.0,6.0,82,0.00,,---,0.00,VWS V14.01,2013-05-19 13:05:00,
2013-05-19 08:10:00,71.9,65.8,29.70,South,189,5.0,12.0,81,0.00,,---,0.00,VWS V14.01,2013-05-19 13:10:00,
2013-05-19 08:15:00,72.0,65.9,29.70,SW,232,2.0,2.0,81,0.00,,---,0.00,VWS V14.01,2013-05-19 13:15:00,
2013-05-19 08:20:00,72.1,65.9,29.70,SW,229,2.0,7.0,81,0.00,,---,0.00,VWS V14.01,2013-05-19 13:20:00,
2013-05-19 08:25:00,72.2,66.1,29.70,SSE,153,12.0,12.0,81,0.00,,---,0.00,VWS V14.01,2013-05-19 13:25:00,
2013-05-19 08:30:00,72.4,66.2,29.70,SSW,210,2.0,3.0,81,0.00,,---,0.00,VWS V14.01,2013-05-19 13:30:00,
2013-05-19 08:35:00,72.6,66.4,29.70,South,186,4.0,4.0,81,0.00,,---,0.00,VWS V14.01,2013-05-19 13:35:00,
2013-05-19 08:40:00,72.7,66.2,29.70,South,171,6.0,6.0,80,0.00,,---,0.00,VWS V14.01,2013-05-19 13:40:00,
2013-05-19 08:45:00,73.0,66.5,29.70,SE,142,5.0,5.0,80,0.00,,---,0.00,VWS V14.01,2013-05-19 13:45:00,
2013-05-19 08:50:00,73.2,66.7,29.70,SW,227,1.0,1.0,80,0.00,,---,0.00,VWS V14.01,2013-05-19 13:50:00,
2013-05-19 08:55:00,73.5,67.0,29.70,South,179,0.0,3.0,80,0.00,,---,0.00,VWS V14.01,2013-05-19 13:55:00,
2013-05-19 09:00:00,73.7,66.8,29.70,South,174,0.0,1.0,79,0.00,,---,0.00,VWS V14.01,2013-05-19 14:00:00,
2013-05-19 09:05:00,73.6,66.7,29.70,South,180,4.0,12.0,79,0.00,,---,0.00,VWS V14.01,2013-05-19 14:05:00,
2013-05-19 09:10:00,73.9,67.0,29.70,South,180,7.0,7.0,79,0.00,,---,0.00,VWS V14.01,2013-05-19 14:10:00,
2013-05-19 09:15:00,74.3,67.4,29.70,SSW,202,0.0,12.0,79,0.00,,---,0.00,VWS V14.01,2013-05-19 14:15:00,
2013-05-19 09:20:00,74.5,67.2,29.70,SW,220,9.0,9.0,78,0.00,,---,0.00,VWS V14.01,2013-05-19 14:20:00,
2013-05-19 09:25:00,74.8,67.1,29.70,South,183,0.0,8.0,77,0.00,,---,0.00,VWS V14.01,2013-05-19 14:25:00,
2013-05-19 09:30:00,75.0,67.3,29.70,SSW,203,1.0,10.0,77,0.00,,---,0.00,VWS V14.01,2013-05-19 14:30:00,
2013-05-19 09:35:00,75.2,67.5,29.70,SSE,164,0.0,2.0,77,0.00,,---,0.00,VWS V14.01,2013-05-19 14:35:00,
2013-05-19 09:40:00,75.5,67.4,29.70,South,188,12.0,12.0,76,0.00,,---,0.00,VWS V14.01,2013-05-19 14:40:00,
2013-05-19 09:45:00,75.5,67.0,29.70,South,173,5.0,10.0,75,0.00,,---,0.00,VWS V14.01,2013-05-19 14:45:00,
2013-05-19 09:50:00,75.5,67.0,29.70,SE,135,5.0,12.0,75,0.00,,---,0.00,VWS V14.01,2013-05-19 14:50:00,
2013-05-19 09:55:00,75.8,67.3,29.70,WSW,242,10.0,12.0,75,0.00,,---,0.00,VWS V14.01,2013-05-19 14:55:00,
2013-05-19 10:00:00,76.3,67.8,29.70,ESE,121,3.0,9.0,75,0.00,,---,0.00,VWS V14.01,2013-05-19 15:00:00,
2013-05-19 10:05:00,76.6,67.7,29.69,SSW,194,3.0,12.0,74,0.00,,---,0.00,VWS V14.01,2013-05-19 15:05:00,
2013-05-19 10:10:00,76.9,67.6,29.69,South,180,11.0,11.0,73,0.00,,---,0.00,VWS V14.01,2013-05-19 15:10:00,
2013-05-19 10:15:00,77.2,67.9,29.69,SSW,201,10.0,11.0,73,0.00,,---,0.00,VWS V14.01,2013-05-19 15:15:00,
2013-05-19 10:20:00,77.3,68.0,29.68,SSE,158,2.0,12.0,73,0.00,,---,0.00,VWS V14.01,2013-05-19 15:20:00,
2013-05-19 10:25:00,77.7,68.4,29.68,South,183,5.0,5.0,73,0.00,,---,0.00,VWS V14.01,2013-05-19 15:25:00,
2013-05-19 10:30:00,77.9,67.8,29.68,SSE,148,11.0,11.0,71,0.00,,---,0.00,VWS V14.01,2013-05-19 15:30:00,
2013-05-19 10:35:00,78.2,68.0,29.67,SSW,201,3.0,6.0,71,0.00,,---,0.00,VWS V14.01,2013-05-19 15:35:00,
2013-05-19 10:40:00,78.6,68.4,29.67,South,188,10.0,10.0,71,0.00,,---,0.00,VWS V14.01,2013-05-19 15:40:00,
2013-05-19 10:45:00,78.9,68.7,29.67,SSW,205,5.0,11.0,71,0.00,,---,0.00,VWS V14.01,2013-05-19 15:45:00,
2013-05-19 10:50:00,78.9,68.3,29.67,SSE,165,12.0,12.0,70,0.00,,---,0.00,VWS V14.01,2013-05-19 15:50:00,
2013-05-19 10:55:00,79.3,68.7,29.67,SW,236,9.0,9.0,70,0.00,,---,0.00,VWS V14.01,2013-05-19 15:55:00,
2013-05-19 11:00:00,79.5,68.4,29.66,East,97,2.0,4.0,69,0.00,,---,0.00,VWS V14.01,2013-05-19 16:00:00,
2013-05-19 11:05:00,79.7,68.6,29.67,SSW,207,1.0,5.0,69,0.00,,---,0.00,VWS V14.01,2013-05-19 16:05:00,
2013-05-19 11:10:00,80.0,68.9,29.66,South,177,7.0,7.0,69,0.00,,---,0.00,VWS V14.01,2013-05-19 16:10:00,
2013-05-19 11:15:00,80.2,68.7,29.66,WSW,240,4.0,8.0,68,0.00,,---,0.00,VWS V14.01,2013-05-19 16:15:00,
2013-05-19 11:20:00,80.4,68.9,29.66,West,269,7.0,13.0,68,0.00,,---,0.00,VWS V14.01,2013-05-19 16:20:00,
2013-05-19 11:25:00,80.7,69.2,29.66,SSW,196,7.0,7.0,68,0.00,,---,0.00,VWS V14.01,2013-05-19 16:25:00,
2013-05-19 11:30:00,81.1,69.6,29.65,SE,140,4.0,5.0,68,0.00,,---,0.00,VWS V14.01,2013-05-19 16:30:00,
2013-05-19 11:35:00,81.3,68.9,29.66,South,184,9.0,9.0,66,0.00,,---,0.00,VWS V14.01,2013-05-19 16:35:00,
2013-05-19 11:40:00,81.4,69.8,29.65,SSE,162,1.0,5.0,68,0.00,,---,0.00,VWS V14.01,2013-05-19 16:40:00,
2013-05-19 11:45:00,81.8,69.3,29.65,South,185,16.0,16.0,66,0.00,,---,0.00,VWS V14.01,2013-05-19 16:45:00,
2013-05-19 11:50:00,81.8,69.3,29.65,SW,221,4.0,5.0,66,0.00,,---,0.00,VWS V14.01,2013-05-19 16:50:00,
2013-05-19 11:55:00,82.1,69.6,29.65,SW,232,2.0,13.0,66,0.00,,---,0.00,VWS V14.01,2013-05-19 16:55:00,
2013-05-19 12:00:00,82.6,70.1,29.65,SSE,148,7.0,7.0,66,0.00,,---,0.00,VWS V14.01,2013-05-19 17:00:00,
2013-05-19 12:05:00,83.1,69.2,29.65,South,186,2.0,16.0,63,0.00,,---,0.00,VWS V14.01,2013-05-19 17:05:00,
2013-05-19 12:10:00,83.4,69.9,29.65,South,182,3.0,16.0,64,0.00,,---,0.00,VWS V14.01,2013-05-19 17:10:00,
2013-05-19 12:15:00,83.6,70.1,29.64,SSE,153,13.0,13.0,64,0.00,,---,0.00,VWS V14.01,2013-05-19 17:15:00,
2013-05-19 12:20:00,83.7,69.8,29.65,SSE,155,4.0,10.0,63,0.00,,---,0.00,VWS V14.01,2013-05-19 17:20:00,
2013-05-19 12:25:00,83.8,69.9,29.64,SSW,200,4.0,7.0,63,0.00,,---,0.00,VWS V14.01,2013-05-19 17:25:00,
2013-05-19 12:30:00,83.9,70.0,29.64,SSW,213,1.0,14.0,63,0.00,,---,0.00,VWS V14.01,2013-05-19 17:30:00,
2013-05-19 12:35:00,84.2,70.2,29.64,South,182,7.0,14.0,63,0.00,,---,0.00,VWS V14.01,2013-05-19 17:35:00,
2013-05-19 12:40:00,84.1,69.7,29.64,South,169,0.0,5.0,62,0.00,,---,0.00,VWS V14.01,2013-05-19 17:40:00,
2013-05-19 12:45:00,84.6,70.2,29.64,SSW,210,7.0,10.0,62,0.00,,---,0.00,VWS V14.01,2013-05-19 17:45:00,
2013-05-19 12:50:00,84.3,69.9,29.64,South,191,4.0,6.0,62,0.00,,---,0.00,VWS V14.01,2013-05-19 17:50:00,
2013-05-19 12:55:00,84.6,71.1,29.64,South,170,0.0,2.0,64,0.00,,---,0.00,VWS V14.01,2013-05-19 17:55:00,
2013-05-19 13:00:00,84.4,71.4,29.63,SSE,150,0.0,10.0,65,0.00,,---,0.00,VWS V14.01,2013-05-19 18:00:00,
2013-05-19 13:05:00,83.1,70.6,29.64,South,186,0.0,13.0,66,0.00,,---,0.00,VWS V14.01,2013-05-19 18:05:00,
2013-05-19 13:10:00,81.9,70.3,29.64,SSE,151,0.0,6.0,68,0.00,,---,0.00,VWS V14.01,2013-05-19 18:10:00,
2013-05-19 13:15:00,82.0,70.4,29.64,SE,128,12.0,12.0,68,0.00,,---,0.00,VWS V14.01,2013-05-19 18:15:00,
2013-05-19 13:20:00,83.4,70.9,29.63,SSW,193,0.0,3.0,66,0.00,,---,0.00,VWS V14.01,2013-05-19 18:20:00,
2013-05-19 13:25:00,84.5,71.0,29.63,South,170,5.0,18.0,64,0.00,,---,0.00,VWS V14.01,2013-05-19 18:25:00,
2013-05-19 13:30:00,85.2,71.2,29.63,South,174,0.0,13.0,63,0.00,,---,0.00,VWS V14.01,2013-05-19 18:30:00,
2013-05-19 13:35:00,86.0,71.9,29.62,SW,232,7.0,7.0,63,0.00,,---,0.00,VWS V14.01,2013-05-19 18:35:00,
2013-05-19 13:40:00,86.2,71.2,29.62,SSE,167,5.0,6.0,61,0.00,,---,0.00,VWS V14.01,2013-05-19 18:40:00,
2013-05-19 13:45:00,85.8,70.3,29.62,SE,132,5.0,11.0,60,0.00,,---,0.00,VWS V14.01,2013-05-19 18:45:00,
2013-05-19 13:50:00,85.7,71.2,29.62,SSW,213,0.0,3.0,62,0.00,,---,0.00,VWS V14.01,2013-05-19 18:50:00,
2013-05-19 13:55:00,85.8,71.3,29.62,South,171,0.0,12.0,62,0.00,,---,0.00,VWS V14.01,2013-05-19 18:55:00,
2013-05-19 14:00:00,86.2,72.1,29.62,SSW,205,3.0,3.0,63,0.00,,---,0.00,VWS V14.01,2013-05-19 19:00:00,
2013-05-19 14:05:00,87.0,71.4,29.61,SW,225,1.0,13.0,60,0.00,,---,0.00,VWS V14.01,2013-05-19 19:05:00,
2013-05-19 14:10:00,86.9,70.9,29.61,SSW,212,4.0,9.0,59,0.00,,---,0.00,VWS V14.01,2013-05-19 19:10:00,
2013-05-19 14:15:00,86.6,71.6,29.61,South,178,7.0,12.0,61,0.00,,---,0.00,VWS V14.01,2013-05-19 19:15:00,
2013-05-19 14:20:00,86.8,71.3,29.61,SSW,199,0.0,2.0,60,0.00,,---,0.00,VWS V14.01,2013-05-19 19:20:00,
2013-05-19 14:25:00,87.3,71.7,29.61,South,186,5.0,5.0,60,0.00,,---,0.00,VWS V14.01,2013-05-19 19:25:00,
2013-05-19 14:30:00,87.2,70.6,29.60,SW,228,0.0,0.0,58,0.00,,---,0.00,VWS V14.01,2013-05-19 19:30:00,
2013-05-19 14:35:00,87.3,71.2,29.60,North,5,2.0,2.0,59,0.00,,---,0.00,VWS V14.01,2013-05-19 19:35:00,
2013-05-19 14:40:00,87.1,71.0,29.60,SSE,167,3.0,6.0,59,0.00,,---,0.00,VWS V14.01,2013-05-19 19:40:00,
2013-05-19 14:45:00,86.4,71.4,29.61,South,169,2.0,5.0,61,0.00,,---,0.00,VWS V14.01,2013-05-19 19:45:00,
2013-05-19 14:50:00,85.8,70.3,29.61,South,188,10.0,14.0,60,0.00,,---,0.00,VWS V14.01,2013-05-19 19:50:00,
2013-05-19 14:55:00,85.9,70.4,29.60,SSE,151,5.0,10.0,60,0.00,,---,0.00,VWS V14.01,2013-05-19 19:55:00,
2013-05-19 15:00:00,86.1,70.6,29.60,South,186,13.0,13.0,60,0.00,,---,0.00,VWS V14.01,2013-05-19 20:00:00,
2013-05-19 15:05:00,86.0,70.0,29.60,SSW,205,0.0,3.0,59,0.00,,---,0.00,VWS V14.01,2013-05-19 20:05:00,
2013-05-19 15:10:00,86.0,71.0,29.60,SSW,210,7.0,7.0,61,0.00,,---,0.00,VWS V14.01,2013-05-19 20:10:00,
2013-05-19 15:15:00,85.8,70.3,29.60,SSE,153,0.0,3.0,60,0.00,,---,0.00,VWS V14.01,2013-05-19 20:15:00,
2013-05-19 15:20:00,85.4,69.9,29.60,SW,221,4.0,4.0,60,0.00,,---,0.00,VWS V14.01,2013-05-19 20:20:00,
2013-05-19 15:25:00,85.1,70.2,29.60,SW,225,0.0,4.0,61,0.00,,---,0.00,VWS V14.01,2013-05-19 20:25:00,
2013-05-19 15:30:00,85.1,70.2,29.60,SSE,158,0.0,6.0,61,0.00,,---,0.00,VWS V14.01,2013-05-19 20:30:00,
2013-05-19 15:35:00,85.0,70.1,29.60,SSW,192,0.0,0.0,61,0.00,,---,0.00,VWS V14.01,2013-05-19 20:35:00,
2013-05-19 15:40:00,85.2,70.7,29.60,South,175,0.0,3.0,62,0.00,,---,0.00,VWS V14.01,2013-05-19 20:40:00,
2013-05-19 15:45:00,85.3,70.3,29.59,SSE,161,12.0,12.0,61,0.00,,---,0.00,VWS V14.01,2013-05-19 20:45:00,
2013-05-19 15:50:00,85.7,70.7,29.59,SSE,163,4.0,4.0,61,0.00,,---,0.00,VWS V14.01,2013-05-19 20:50:00,
2013-05-19 15:55:00,86.0,71.0,29.59,West,263,5.0,5.0,61,0.00,,---,0.00,VWS V14.01,2013-05-19 20:55:00,
2013-05-19 16:00:00,86.6,71.1,29.59,SSW,206,2.0,2.0,60,0.00,,---,0.00,VWS V14.01,2013-05-19 21:00:00,
2013-05-19 16:05:00,87.3,72.2,29.59,South,178,0.0,3.0,61,0.00,,---,0.00,VWS V14.01,2013-05-19 21:05:00,
2013-05-19 16:10:00,87.2,71.1,29.58,SSE,162,0.0,1.0,59,0.00,,---,0.00,VWS V14.01,2013-05-19 21:10:00,
2013-05-19 16:15:00,87.1,71.5,29.58,SSW,213,0.0,3.0,60,0.00,,---,0.00,VWS V14.01,2013-05-19 21:15:00,
2013-05-19 16:20:00,87.1,71.5,29.58,South,176,2.0,2.0,60,0.00,,---,0.00,VWS V14.01,2013-05-19 21:20:00,
2013-05-19 16:25:00,86.8,71.8,29.58,SSW,213,0.0,0.0,61,0.00,,---,0.00,VWS V14.01,2013-05-19 21:25:00,
2013-05-19 16:30:00,86.9,71.3,29.58,WSW,244,7.0,7.0,60,0.00,,---,0.00,VWS V14.01,2013-05-19 21:30:00,
2013-05-19 16:35:00,87.0,71.4,29.58,SSW,212,0.0,1.0,60,0.00,,---,0.00,VWS V14.01,2013-05-19 21:35:00,
2013-05-19 16:40:00,87.3,71.7,29.58,South,178,5.0,5.0,60,0.00,,---,0.00,VWS V14.01,2013-05-19 21:40:00,
2013-05-19 16:45:00,87.3,71.7,29.57,SSE,161,4.0,4.0,60,0.00,,---,0.00,VWS V14.01,2013-05-19 21:45:00,
2013-05-19 16:50:00,87.6,72.0,29.57,SSW,194,4.0,4.0,60,0.00,,---,0.00,VWS V14.01,2013-05-19 21:50:00,
2013-05-19 16:55:00,87.4,71.8,29.57,SSE,167,11.0,11.0,60,0.00,,---,0.00,VWS V14.01,2013-05-19 21:55:00,
2013-05-19 17:00:00,88.0,71.9,29.57,ESE,118,4.0,4.0,59,0.00,,---,0.00,VWS V14.01,2013-05-19 22:00:00,
2013-05-19 17:05:00,88.5,71.8,29.56,South,175,3.0,3.0,58,0.00,,---,0.00,VWS V14.01,2013-05-19 22:05:00,
2013-05-19 17:10:00,88.5,71.3,29.56,SSE,158,6.0,6.0,57,0.00,,---,0.00,VWS V14.01,2013-05-19 22:10:00,
2013-05-19 17:15:00,88.4,71.8,29.57,SSE,154,3.0,3.0,58,0.00,,---,0.00,VWS V14.01,2013-05-19 22:15:00,
2013-05-19 17:20:00,88.2,71.6,29.56,SW,225,2.0,3.0,58,0.00,,---,0.00,VWS V14.01,2013-05-19 22:20:00,
2013-05-19 17:25:00,88.4,71.8,29.56,SE,145,4.0,6.0,58,0.00,,---,0.00,VWS V14.01,2013-05-19 22:25:00,
2013-05-19 17:30:00,88.6,71.4,29.56,WSW,237,5.0,10.0,57,0.00,,---,0.00,VWS V14.01,2013-05-19 22:30:00,
2013-05-19 17:35:00,88.3,71.2,29.56,WSW,240,5.0,5.0,57,0.00,,---,0.00,VWS V14.01,2013-05-19 22:35:00,
2013-05-19 17:40:00,88.3,71.2,29.56,SW,217,14.0,14.0,57,0.00,,---,0.00,VWS V14.01,2013-05-19 22:40:00,
2013-05-19 17:45:00,88.4,71.2,29.56,SSE,168,6.0,6.0,57,0.00,,---,0.00,VWS V14.01,2013-05-19 22:45:00,
2013-05-19 17:50:00,88.2,71.1,29.56,SSW,194,0.0,0.0,57,0.00,,---,0.00,VWS V14.01,2013-05-19 22:50:00,
2013-05-19 17:55:00,88.3,71.7,29.56,SW,226,6.0,6.0,58,0.00,,---,0.00,VWS V14.01,2013-05-19 22:55:00,
2013-05-19 18:00:00,88.3,71.2,29.55,SSE,160,6.0,11.0,57,0.00,,---,0.00,VWS V14.01,2013-05-19 23:00:00,
2013-05-19 18:05:00,88.2,71.1,29.55,SSE,160,3.0,6.0,57,0.00,,---,0.00,VWS V14.01,2013-05-19 23:05:00,
2013-05-19 18:10:00,88.0,70.9,29.55,South,172,2.0,7.0,57,0.00,,---,0.00,VWS V14.01,2013-05-19 23:10:00,
2013-05-19 18:15:00,87.8,70.7,29.55,SE,145,2.0,5.0,57,0.00,,---,0.00,VWS V14.01,2013-05-19 23:15:00,
2013-05-19 18:20:00,87.8,71.2,29.54,SSW,196,10.0,10.0,58,0.00,,---,0.00,VWS V14.01,2013-05-19 23:20:00,
2013-05-19 18:25:00,87.6,70.5,29.54,SW,215,0.0,1.0,57,0.00,,---,0.00,VWS V14.01,2013-05-19 23:25:00,
2013-05-19 18:30:00,87.5,70.9,29.54,SW,217,4.0,7.0,58,0.00,,---,0.00,VWS V14.01,2013-05-19 23:30:00,
2013-05-19 18:35:00,87.4,70.8,29.54,West,276,4.0,6.0,58,0.00,,---,0.00,VWS V14.01,2013-05-19 23:35:00,
2013-05-19 18:40:00,87.3,70.7,29.54,South,182,2.0,4.0,58,0.00,,---,0.00,VWS V14.01,2013-05-19 23:40:00,
2013-05-19 18:45:00,87.1,70.5,29.54,South,186,2.0,4.0,58,0.00,,---,0.00,VWS V14.01,2013-05-19 23:45:00,
2013-05-19 18:50:00,87.1,70.5,29.54,SE,146,19.0,19.0,58,0.00,,---,0.00,VWS V14.01,2013-05-19 23:50:00,
2013-05-19 18:55:00,87.0,70.4,29.54,South,180,0.0,12.0,58,0.00,,---,0.00,VWS V14.01,2013-05-19 23:55:00,
2013-05-19 19:00:00,86.9,70.4,29.54,WSW,240,2.0,2.0,58,0.00,,---,0.00,VWS V14.01,2013-05-20 00:00:00,
2013-05-19 19:05:00,86.8,70.8,29.54,SW,216,0.0,4.0,59,0.00,,---,0.00,VWS V14.01,2013-05-20 00:05:00,
2013-05-19 19:10:00,86.7,70.7,29.54,SSE,159,7.0,7.0,59,0.00,,---,0.00,VWS V14.01,2013-05-20 00:10:00,
2013-05-19 19:15:00,86.6,70.1,29.54,SSE,161,0.0,1.0,58,0.00,,---,0.00,VWS V14.01,2013-05-20 00:15:00,
2013-05-19 19:20:00,86.4,69.9,29.54,SSE,166,3.0,10.0,58,0.00,,---,0.00,VWS V14.01,2013-05-20 00:20:00,
2013-05-19 19:25:00,86.3,69.8,29.54,SSW,201,1.0,4.0,58,0.00,,---,0.00,VWS V14.01,2013-05-20 00:25:00,
2013-05-19 19:30:00,86.2,69.7,29.54,South,189,11.0,11.0,58,0.00,,---,0.00,VWS V14.01,2013-05-20 00:30:00,
2013-05-19 19:35:00,86.1,70.1,29.54,SSW,194,2.0,3.0,59,0.00,,---,0.00,VWS V14.01,2013-05-20 00:35:00,
2013-05-19 19:40:00,86.0,70.0,29.54,South,182,15.0,15.0,59,0.00,,---,0.00,VWS V14.01,2013-05-20 00:40:00,
2013-05-19 19:45:00,86.0,70.0,29.55,South,175,7.0,9.0,59,0.00,,---,0.00,VWS V14.01,2013-05-20 00:45:00,
2013-05-19 19:50:00,85.8,69.8,29.56,SE,142,0.0,0.0,59,0.00,,---,0.00,VWS V14.01,2013-05-20 00:50:00,
2013-05-19 19:54:00,85.6,70.1,29.56,West,261,7.0,7.0,60,0.00,,---,0.00,VWS V14.01,2013-05-20 00:54:00,
2013-05-19 19:59:00,85.5,70.0,29.56,SW,234,2.0,11.0,60,0.00,,---,0.00,VWS V14.01,2013-05-20 00:59:00,
2013-05-19 20:04:00,85.4,69.9,29.56,West,263,0.0,3.0,60,0.00,,---,0.00,VWS V14.01,2013-05-20 01:04:00,
2013-05-19 20:09:00,85.3,69.8,29.57,WSW,243,2.0,7.0,60,0.00,,---,0.00,VWS V14.01,2013-05-20 01:09:00,
2013-05-19 20:14:00,85.1,70.2,29.57,South,185,1.0,10.0,61,0.00,,---,0.00,VWS V14.01,2013-05-20 01:14:00,
2013-05-19 20:19:00,84.9,70.0,29.57,South,186,9.0,9.0,61,0.00,,---,0.00,VWS V14.01,2013-05-20 01:19:00,
2013-05-19 20:24:00,84.6,70.2,29.57,SSE,157,0.0,0.0,62,0.00,,---,0.00,VWS V14.01,2013-05-20 01:24:00,
2013-05-19 20:29:00,84.3,69.9,29.57,South,185,0.0,11.0,62,0.00,,---,0.00,VWS V14.01,2013-05-20 01:29:00,
2013-05-19 20:34:00,84.1,70.2,29.57,South,178,0.0,0.0,63,0.00,,---,0.00,VWS V14.01,2013-05-20 01:34:00,
2013-05-19 20:39:00,84.0,70.1,29.57,South,169,5.0,5.0,63,0.00,,---,0.00,VWS V14.01,2013-05-20 01:39:00,
2013-05-19 20:44:00,83.9,70.0,29.58,South,174,0.0,1.0,63,0.00,,---,0.00,VWS V14.01,2013-05-20 01:44:00,
2013-05-19 20:49:00,83.7,69.8,29.58,SSE,156,0.0,0.0,63,0.00,,---,0.00,VWS V14.01,2013-05-20 01:49:00,
2013-05-19 20:54:00,83.7,69.8,29.58,South,175,0.0,0.0,63,0.00,,---,0.00,VWS V14.01,2013-05-20 01:54:00,
2013-05-19 20:59:00,83.6,69.7,29.58,SSW,208,11.0,11.0,63,0.00,,---,0.00,VWS V14.01,2013-05-20 01:59:00,
2013-05-19 21:04:00,83.7,69.8,29.58,South,173,1.0,5.0,63,0.00,,---,0.00,VWS V14.01,2013-05-20 02:04:00,
2013-05-19 21:09:00,83.7,69.8,29.59,South,184,0.0,4.0,63,0.00,,---,0.00,VWS V14.01,2013-05-20 02:09:00,
2013-05-19 21:14:00,83.6,69.7,29.59,SSW,210,0.0,6.0,63,0.00,,---,0.00,VWS V14.01,2013-05-20 02:14:00,
2013-05-19 21:19:00,83.4,69.9,29.59,South,190,0.0,1.0,64,0.00,,---,0.00,VWS V14.01,2013-05-20 02:19:00,
2013-05-19 21:24:00,83.1,69.7,29.59,SW,229,0.0,4.0,64,0.00,,---,0.00,VWS V14.01,2013-05-20 02:24:00,
2013-05-19 21:29:00,82.9,69.9,29.60,SSE,168,0.0,0.0,65,0.00,,---,0.00,VWS V14.01,2013-05-20 02:29:00,
2013-05-19 21:34:00,82.8,69.8,29.60,SSW,197,0.0,5.0,65,0.00,,---,0.00,VWS V14.01,2013-05-20 02:34:00,
2013-05-19 21:39:00,82.6,69.7,29.60,SSW,209,6.0,10.0,65,0.00,,---,0.00,VWS V14.01,2013-05-20 02:39:00,
2013-05-19 21:44:00,82.6,69.2,29.60,South,178,4.0,6.0,64,0.00,,---,0.00,VWS V14.01,2013-05-20 02:44:00,
2013-05-19 21:49:00,82.6,69.2,29.60,SE,129,3.0,7.0,64,0.00,,---,0.00,VWS V14.01,2013-05-20 02:49:00,
2013-05-19 21:54:00,82.5,69.1,29.60,SSE,155,2.0,2.0,64,0.00,,---,0.00,VWS V14.01,2013-05-20 02:54:00,
2013-05-19 21:59:00,82.3,68.9,29.60,SSE,161,2.0,4.0,64,0.00,,---,0.00,VWS V14.01,2013-05-20 02:59:00,
2013-05-19 22:04:00,82.2,68.8,29.60,South,169,0.0,6.0,64,0.00,,---,0.00,VWS V14.01,2013-05-20 03:04:00,
2013-05-19 22:09:00,82.1,68.7,29.60,SSE,162,2.0,6.0,64,0.00,,---,0.00,VWS V14.01,2013-05-20 03:09:00,
2013-05-19 22:14:00,81.9,68.5,29.61,South,169,4.0,7.0,64,0.00,,---,0.00,VWS V14.01,2013-05-20 03:14:00,
2013-05-19 22:19:00,81.9,68.5,29.61,South,174,2.0,11.0,64,0.00,,---,0.00,VWS V14.01,2013-05-20 03:19:00,
2013-05-19 22:24:00,81.9,68.1,29.61,SSE,167,0.0,15.0,63,0.00,,---,0.00,VWS V14.01,2013-05-20 03:24:00,
2013-05-19 22:29:00,81.8,68.0,29.61,South,169,11.0,11.0,63,0.00,,---,0.00,VWS V14.01,2013-05-20 03:29:00,
2013-05-19 22:34:00,81.7,68.3,29.61,South,188,7.0,7.0,64,0.00,,---,0.00,VWS V14.01,2013-05-20 03:34:00,
2013-05-19 22:39:00,81.5,68.2,29.61,South,183,4.0,6.0,64,0.00,,---,0.00,VWS V14.01,2013-05-20 03:39:00,
2013-05-19 22:44:00,81.4,68.5,29.61,South,175,0.0,13.0,65,0.00,,---,0.00,VWS V14.01,2013-05-20 03:44:00,
2013-05-19 22:49:00,81.2,68.3,29.62,SE,142,0.0,2.0,65,0.00,,---,0.00,VWS V14.01,2013-05-20 03:49:00,
2013-05-19 22:54:00,81.1,68.2,29.62,South,188,1.0,10.0,65,0.00,,---,0.00,VWS V14.01,2013-05-20 03:54:00,
2013-05-19 22:59:00,80.8,68.4,29.62,South,181,0.0,2.0,66,0.00,,---,0.00,VWS V14.01,2013-05-20 03:59:00,
2013-05-19 23:01:00,80.8,68.4,29.62,SSE,154,6.0,6.0,66,0.00,,---,0.00,VWS V14.01,2013-05-20 04:01:00,
2013-05-19 23:06:00,80.6,68.2,29.62,South,185,0.0,3.0,66,0.00,,---,0.00,VWS V14.01,2013-05-20 04:06:00,
2013-05-19 23:11:00,80.5,68.1,29.62,SSW,192,4.0,4.0,66,0.00,,---,0.00,VWS V14.01,2013-05-20 04:11:00,
2013-05-19 23:16:00,80.4,68.0,29.62,SSE,161,5.0,5.0,66,0.00,,---,0.00,VWS V14.01,2013-05-20 04:16:00,
2013-05-19 23:21:00,80.3,67.9,29.62,WSW,246,5.0,5.0,66,0.00,,---,0.00,VWS V14.01,2013-05-20 04:21:00,
2013-05-19 23:26:00,80.1,67.7,29.62,SE,131,9.0,9.0,66,0.00,,---,0.00,VWS V14.01,2013-05-20 04:26:00,
2013-05-19 23:31:00,80.0,67.6,29.63,SSW,206,0.0,6.0,66,0.00,,---,0.00,VWS V14.01,2013-05-20 04:31:00,
2013-05-19 23:36:00,79.9,68.0,29.63,SSW,207,0.0,4.0,67,0.00,,---,0.00,VWS V14.01,2013-05-20 04:36:00,
2013-05-19 23:41:00,79.7,67.8,29.63,SSW,204,0.0,3.0,67,0.00,,---,0.00,VWS V14.01,2013-05-20 04:41:00,
2013-05-19 23:46:00,79.6,67.7,29.63,SSE,153,3.0,3.0,67,0.00,,---,0.00,VWS V14.01,2013-05-20 04:46:00,
2013-05-19 23:51:00,79.5,67.6,29.64,WSW,246,4.0,15.0,67,0.00,,---,0.00,VWS V14.01,2013-05-20 04:51:00,
2013-05-19 23:56:00,79.4,67.5,29.64,South,185,10.0,10.0,67,0.00,,---,0.00,VWS V14.01,2013-05-20 04:56:00,